Hoegh Transporter — LAKO7 — position and weather

sailwx.info

Track history (hours):
 
Tides and Currents Weather Stations Pressure Air Temp Water Temp Dewpoint Dewpoint Depression Visibility Wind Speed Wind Dir Waves Ship Positions

Hoegh Transporter

Last reported at 2017-Mar-23 10:19 UTC. Time now 2017-Mar-23 12:14 UTC.
Position N 53°35' E 005°02'.

Length 199 m; draft 9.2 m.

Type: Cargo ship. MMSI: 257712000.

Date/timePositionNaut miles runAvg speedWind from/ knotsBaromVisibWave heightAir tempDewpointWater temp
2017-Mar-23 10:19N 53°35' E 005°02'1418.0
2017-Mar-23 09:32N 53°39' E 005°24'5617.8
2017-Mar-23 06:25N 53°55' E 006°55'1416.8
2017-Mar-23 05:33N 53°58' E 007°19'1413.8
2017-Mar-23 04:31N 53°57' E 007°43'1212.3
2017-Mar-23 03:33N 53°51' E 008°01'1313.2
2017-Mar-23 02:33N 53°43' E 008°18'1212.2
2017-Mar-23 01:33N 53°34' E 008°32'1 0.6
2017-Mar-23 00:33N 53°35' E 008°33'0 0.0
2017-Mar-22 23:33N 53°35' E 008°33'0 0.0
2017-Mar-22 22:33N 53°35' E 008°33'0 0.0
2017-Mar-22 21:33N 53°35' E 008°33'0 0.0
2017-Mar-22 20:33N 53°35' E 008°33'0 0.0
2017-Mar-22 19:33N 53°35' E 008°33'0 0.0
2017-Mar-22 18:33N 53°35' E 008°33'0 0.0
2017-Mar-22 17:33N 53°35' E 008°33'0 0.0
2017-Mar-22 16:33N 53°35' E 008°33'0 0.0
2017-Mar-22 15:33N 53°35' E 008°33'0 0.0
2017-Mar-22 14:33N 53°35' E 008°33'0 0.0
2017-Mar-22 13:33N 53°35' E 008°33'0 0.0
2017-Mar-22 12:33N 53°35' E 008°33'0 0.0
2017-Mar-22 11:33N 53°35' E 008°33'0 0.0
2017-Mar-22 10:33N 53°35' E 008°33'0 0.0
2017-Mar-22 09:33N 53°35' E 008°33'0 0.0
2017-Mar-22 08:33N 53°35' E 008°33'0 0.0
2017-Mar-22 07:33N 53°35' E 008°33'0 0.0
2017-Mar-22 06:33N 53°35' E 008°33'0 0.0
2017-Mar-22 05:33N 53°35' E 008°33'0 0.0
2017-Mar-22 04:33N 53°35' E 008°33'0 0.0
2017-Mar-22 03:33N 53°35' E 008°33'0 0.0
2017-Mar-22 02:33N 53°35' E 008°33'0 0.0
2017-Mar-22 01:33N 53°35' E 008°33'0 0.0
2017-Mar-22 00:30N 53°35' E 008°33'0 0.0
2017-Mar-21 23:33N 53°35' E 008°33'0 0.0
2017-Mar-21 22:30N 53°35' E 008°33'0 0.0
2017-Mar-21 21:33N 53°35' E 008°33'0 0.0
2017-Mar-21 20:33N 53°35' E 008°33'0 0.0
2017-Mar-21 19:33N 53°35' E 008°33'0 0.0
2017-Mar-21 18:33N 53°35' E 008°33'0 0.0
2017-Mar-21 17:33N 53°35' E 008°33'0 0.0
2017-Mar-21 16:33N 53°35' E 008°33'0 0.0
2017-Mar-21 15:33N 53°35' E 008°33'0 0.0
2017-Mar-21 14:33N 53°35' E 008°33'0 0.0
2017-Mar-21 13:33N 53°35' E 008°33'0 0.2
2017-Mar-21 12:33N 53°34' E 008°33'0 0.5
2017-Mar-21 11:33N 53°34' E 008°33'10 9.9
2017-Mar-21 10:33N 53°41' E 008°21'1313.3
2017-Mar-21 09:33N 53°50' E 008°04'1111.2
2017-Mar-21 08:33N 53°53' E 007°46'5 5.3
2017-Mar-21 07:33N 53°54' E 007°37'66 8.2
2017-Mar-20 23:24N 53°49' E 005°45'4 4.3
2017-Mar-20 22:33N 53°51' E 005°39'2 2.4
2017-Mar-20 21:33N 53°50' E 005°35'1 0.0
2017-Mar-19 17:32N 53°50' E 005°37'1 1.4
2017-Mar-19 16:33N 53°49' E 005°35'2 1.5
2017-Mar-19 15:32N 53°49' E 005°32'29 9.6
2017-Mar-19 12:29N 53°28' E 004°59'2017.6
2017-Mar-19 11:22N 53°14' E 004°35'1417.8
2017-Mar-19 10:33N 53°02' E 004°23'1817.9
2017-Mar-19 09:33N 52°46' E 004°10'1818.1
2017-Mar-19 08:33N 52°33' E 003°48'1614.7
2017-Mar-19 07:27N 52°22' E 003°29'1314.2
2017-Mar-19 06:32N 52°09' E 003°26'1514.3
2017-Mar-19 05:30N 51°55' E 003°22'9 9.6
2017-Mar-19 04:32N 51°47' E 003°14'1010.0
2017-Mar-19 03:33N 51°38' E 003°22'1110.6
2017-Mar-19 02:34N 51°29' E 003°30'7 6.8
2017-Mar-19 01:34N 51°27' E 003°41'1110.6
2017-Mar-19 00:33N 51°23' E 003°57'10 9.7
2017-Mar-18 23:33N 51°24' E 004°12'7 7.3
2017-Mar-18 22:33N 51°17' E 004°15'1 1.0
2017-Mar-18 21:33N 51°16' E 004°14'0 0.0
2017-Mar-18 20:28N 51°16' E 004°14'0 0.0
2017-Mar-18 19:31N 51°16' E 004°14'0 0.0
2017-Mar-18 18:31N 51°16' E 004°14'0 0.0
2017-Mar-18 17:28N 51°16' E 004°14'0 0.0
2017-Mar-18 16:31N 51°16' E 004°14'0 0.0
2017-Mar-18 15:31N 51°16' E 004°14'0 0.0
2017-Mar-18 14:31N 51°16' E 004°14'0 0.0
2017-Mar-18 13:31N 51°16' E 004°14'0 0.0
2017-Mar-18 12:31N 51°16' E 004°14'0 0.0
2017-Mar-18 11:31N 51°16' E 004°14'0 0.0
2017-Mar-18 10:31N 51°16' E 004°14'0 0.0
2017-Mar-18 09:31N 51°16' E 004°14'0 0.0
2017-Mar-18 08:31N 51°16' E 004°14'0 0.0
2017-Mar-18 07:31N 51°16' E 004°14'0 0.0
2017-Mar-18 06:31N 51°16' E 004°14'0 0.0
2017-Mar-18 05:31N 51°16' E 004°14'0 0.0
2017-Mar-18 04:31N 51°16' E 004°14'0 0.0
2017-Mar-18 03:31N 51°16' E 004°14'0 0.0
2017-Mar-18 02:31N 51°16' E 004°14'0 0.0
2017-Mar-18 01:31N 51°16' E 004°14'0 0.0
2017-Mar-18 00:31N 51°16' E 004°14'0 0.0
2017-Mar-17 23:31N 51°16' E 004°14'0 0.0
2017-Mar-17 22:31N 51°16' E 004°14'0 0.0
2017-Mar-17 21:31N 51°16' E 004°14'0 0.0
2017-Mar-17 20:31N 51°16' E 004°14'0 0.0
2017-Mar-17 19:31N 51°16' E 004°14'0 0.0
2017-Mar-17 18:28N 51°16' E 004°14'0 0.0
2017-Mar-17 17:31N 51°16' E 004°14'0 0.0
2017-Mar-17 16:31N 51°16' E 004°14'0 0.0
2017-Mar-17 15:31N 51°16' E 004°14'0 0.0
2017-Mar-17 14:31N 51°16' E 004°14'0 0.0
2017-Mar-17 13:31N 51°16' E 004°14'0 0.0
2017-Mar-17 12:31N 51°16' E 004°14'0 0.0
2017-Mar-17 11:25N 51°16' E 004°14'0 0.0
2017-Mar-17 10:31N 51°16' E 004°14'1 1.0
2017-Mar-17 09:34N 51°17' E 004°15'0 0.3
2017-Mar-17 08:33N 51°17' E 004°15'6 6.4
2017-Mar-17 07:33N 51°23' E 004°13'9 8.4
2017-Mar-17 06:32N 51°26' E 003°60'9 9.5
2017-Mar-17 05:33N 51°21' E 003°47'9 9.5
2017-Mar-17 04:34N 51°26' E 003°34'10 9.9
2017-Mar-17 03:33N 51°34' E 003°25'1111.1
2017-Mar-17 02:33N 51°43' E 003°15'1615.1
2017-Mar-17 01:32N 51°59' E 003°20'1414.0
2017-Mar-17 00:30N 52°13' E 003°21'1718.0
2017-Mar-16 23:33N 52°27' E 003°38'1717.2
2017-Mar-16 22:33N 52°31' E 004°05'9 7.8
2017-Mar-16 21:28N 52°32' E 004°19'0 0.1
2017-Mar-16 20:28N 52°32' E 004°19'2 2.7
2017-Mar-16 19:34N 52°31' E 004°23'9 8.6
2017-Mar-16 18:33N 52°28' E 004°36'1 0.9
2017-Mar-16 17:34N 52°28' E 004°38'7 7.1
2017-Mar-16 16:34N 52°25' E 004°49'1 0.8
2017-Mar-16 15:32N 52°24' E 004°49'0 0.0
2017-Mar-16 14:32N 52°24' E 004°49'0 0.0
2017-Mar-16 13:32N 52°24' E 004°49'0 0.0
2017-Mar-16 12:32N 52°24' E 004°49'0 0.0
2017-Mar-16 11:32N 52°24' E 004°49'0 0.0
2017-Mar-16 10:32N 52°24' E 004°49'0 0.0
2017-Mar-16 09:32N 52°24' E 004°49'0 0.0
2017-Mar-16 08:29N 52°24' E 004°49'0 0.0
2017-Mar-16 07:32N 52°24' E 004°49'0 0.0
2017-Mar-16 06:32N 52°24' E 004°49'0 0.0
2017-Mar-16 05:32N 52°24' E 004°49'0 0.0
2017-Mar-16 04:32N 52°24' E 004°49'0 0.0
2017-Mar-16 03:32N 52°24' E 004°49'0 0.0
2017-Mar-16 02:32N 52°24' E 004°49'0 0.0
2017-Mar-16 01:32N 52°24' E 004°49'0 0.0
2017-Mar-16 00:32N 52°24' E 004°49'0 0.0
2017-Mar-15 23:32N 52°24' E 004°49'0 0.0
2017-Mar-15 22:32N 52°24' E 004°49'0 0.0
2017-Mar-15 21:32N 52°24' E 004°49'0 0.0
2017-Mar-15 20:32N 52°24' E 004°49'1 0.8
2017-Mar-15 19:33N 52°25' E 004°49'8 7.7
2017-Mar-15 18:33N 52°28' E 004°37'2 1.9
2017-Mar-15 17:33N 52°28' E 004°34'8 8.3
2017-Mar-15 16:33N 52°29' E 004°20'1010.3
2017-Mar-15 15:33N 52°34' E 004°06'1211.6
2017-Mar-15 14:33N 52°45' E 003°57'1211.5
2017-Mar-15 13:33N 52°55' E 003°48'13212.0
2017-Mar-15 02:33N 54°14' E 000°51'1211.5
2017-Mar-15 01:32N 54°21' E 000°34'1111.3
2017-Mar-15 00:33N 54°27' E 000°18'1111.1
2017-Mar-14 23:33N 54°33' E 000°02'1111.1
2017-Mar-14 22:33N 54°39' W 000°14'1111.2
2017-Mar-14 21:33N 54°45' W 000°31'2311.6
2017-Mar-14 19:33N 54°57' W 001°05'1111.1
2017-Mar-14 18:33N 55°01' W 001°23'3 3.3
2017-Mar-14 17:32N 54°59' W 001°28'0 0.0
2017-Mar-14 16:32N 54°59' W 001°28'0 0.0
2017-Mar-14 15:32N 54°59' W 001°28'0 0.0
2017-Mar-14 14:29N 54°59' W 001°28'0 0.0
2017-Mar-14 13:32N 54°59' W 001°28'0 0.0
2017-Mar-14 12:32N 54°59' W 001°28'0 0.0
2017-Mar-14 11:32N 54°59' W 001°28'0 0.0
2017-Mar-14 10:32N 54°59' W 001°28'0 0.0
2017-Mar-14 09:32N 54°59' W 001°28'0 0.0
2017-Mar-14 08:32N 54°59' W 001°28'0 0.0
2017-Mar-14 07:32N 54°59' W 001°28'0 0.0
2017-Mar-14 06:32N 54°59' W 001°28'0 0.0
2017-Mar-14 05:32N 54°59' W 001°28'0 0.0
2017-Mar-14 04:32N 54°59' W 001°28'0 0.0
2017-Mar-14 03:32N 54°59' W 001°28'0 0.0
2017-Mar-14 02:32N 54°59' W 001°28'0 0.0
2017-Mar-14 01:32N 54°59' W 001°28'0 0.0
2017-Mar-14 00:32N 54°59' W 001°28'0 0.0
2017-Mar-13 23:32N 54°59' W 001°28'0 0.0
2017-Mar-13 22:32N 54°59' W 001°28'0 0.0
2017-Mar-13 21:32N 54°59' W 001°28'0 0.3
2017-Mar-13 20:33N 54°59' W 001°27'0 0.0
2017-Mar-13 19:33N 54°59' W 001°27'0 0.0
2017-Mar-13 18:30N 54°59' W 001°27'0 0.0
2017-Mar-13 17:24N 54°59' W 001°27'0 0.0
2017-Mar-13 16:30N 54°59' W 001°27'0 0.0
2017-Mar-13 15:33N 54°59' W 001°27'0 0.0
2017-Mar-13 14:33N 54°59' W 001°27'0 0.0
2017-Mar-13 13:33N 54°59' W 001°27'0 0.0
2017-Mar-13 12:33N 54°59' W 001°27'0 0.0
2017-Mar-13 11:30N 54°59' W 001°27'0 0.0
2017-Mar-13 10:30N 54°59' W 001°27'  
Track history (hours):
 
Tides and Currents Weather Stations Pressure Air Temp Water Temp Dewpoint Dewpoint Depression Visibility Wind Speed Wind Dir Waves Ship Positions

Hoegh Transporter

Last reported at 2017-Mar-23 10:19 UTC. Time now 2017-Mar-23 12:14 UTC.
Position N 53°35' E 005°02'.

Length 199 m; draft 9.2 m.

Type: Cargo ship. MMSI: 257712000.

Date/timePositionNaut miles runAvg speedWind from/ knotsBaromVisibWave heightAir tempDewpointWater temp
2017-Mar-23 10:19N 53°35' E 005°02'1418.0
2017-Mar-23 09:32N 53°39' E 005°24'5617.8
2017-Mar-23 06:25N 53°55' E 006°55'1416.8
2017-Mar-23 05:33N 53°58' E 007°19'1413.8
2017-Mar-23 04:31N 53°57' E 007°43'1212.3
2017-Mar-23 03:33N 53°51' E 008°01'1313.2
2017-Mar-23 02:33N 53°43' E 008°18'1212.2
2017-Mar-23 01:33N 53°34' E 008°32'1 0.6
2017-Mar-23 00:33N 53°35' E 008°33'0 0.0
2017-Mar-22 23:33N 53°35' E 008°33'0 0.0
2017-Mar-22 22:33N 53°35' E 008°33'0 0.0
2017-Mar-22 21:33N 53°35' E 008°33'0 0.0
2017-Mar-22 20:33N 53°35' E 008°33'0 0.0
2017-Mar-22 19:33N 53°35' E 008°33'0 0.0
2017-Mar-22 18:33N 53°35' E 008°33'0 0.0
2017-Mar-22 17:33N 53°35' E 008°33'0 0.0
2017-Mar-22 16:33N 53°35' E 008°33'0 0.0
2017-Mar-22 15:33N 53°35' E 008°33'0 0.0
2017-Mar-22 14:33N 53°35' E 008°33'0 0.0
2017-Mar-22 13:33N 53°35' E 008°33'0 0.0
2017-Mar-22 12:33N 53°35' E 008°33'0 0.0
2017-Mar-22 11:33N 53°35' E 008°33'0 0.0
2017-Mar-22 10:33N 53°35' E 008°33'0 0.0
2017-Mar-22 09:33N 53°35' E 008°33'0 0.0
2017-Mar-22 08:33N 53°35' E 008°33'0 0.0
2017-Mar-22 07:33N 53°35' E 008°33'0 0.0
2017-Mar-22 06:33N 53°35' E 008°33'0 0.0
2017-Mar-22 05:33N 53°35' E 008°33'0 0.0
2017-Mar-22 04:33N 53°35' E 008°33'0 0.0
2017-Mar-22 03:33N 53°35' E 008°33'0 0.0
2017-Mar-22 02:33N 53°35' E 008°33'0 0.0
2017-Mar-22 01:33N 53°35' E 008°33'0 0.0
2017-Mar-22 00:30N 53°35' E 008°33'0 0.0
2017-Mar-21 23:33N 53°35' E 008°33'0 0.0
2017-Mar-21 22:30N 53°35' E 008°33'0 0.0
2017-Mar-21 21:33N 53°35' E 008°33'0 0.0
2017-Mar-21 20:33N 53°35' E 008°33'0 0.0
2017-Mar-21 19:33N 53°35' E 008°33'0 0.0
2017-Mar-21 18:33N 53°35' E 008°33'0 0.0
2017-Mar-21 17:33N 53°35' E 008°33'0 0.0
2017-Mar-21 16:33N 53°35' E 008°33'0 0.0
2017-Mar-21 15:33N 53°35' E 008°33'0 0.0
2017-Mar-21 14:33N 53°35' E 008°33'0 0.0
2017-Mar-21 13:33N 53°35' E 008°33'0 0.2
2017-Mar-21 12:33N 53°34' E 008°33'0 0.5
2017-Mar-21 11:33N 53°34' E 008°33'10 9.9
2017-Mar-21 10:33N 53°41' E 008°21'1313.3
2017-Mar-21 09:33N 53°50' E 008°04'1111.2
2017-Mar-21 08:33N 53°53' E 007°46'5 5.3
2017-Mar-21 07:33N 53°54' E 007°37'66 8.2
2017-Mar-20 23:24N 53°49' E 005°45'4 4.3
2017-Mar-20 22:33N 53°51' E 005°39'2 2.4
2017-Mar-20 21:33N 53°50' E 005°35'1 0.0
2017-Mar-19 17:32N 53°50' E 005°37'1 1.4
2017-Mar-19 16:33N 53°49' E 005°35'2 1.5
2017-Mar-19 15:32N 53°49' E 005°32'29 9.6
2017-Mar-19 12:29N 53°28' E 004°59'2017.6
2017-Mar-19 11:22N 53°14' E 004°35'1417.8
2017-Mar-19 10:33N 53°02' E 004°23'1817.9
2017-Mar-19 09:33N 52°46' E 004°10'1818.1
2017-Mar-19 08:33N 52°33' E 003°48'1614.7
2017-Mar-19 07:27N 52°22' E 003°29'1314.2
2017-Mar-19 06:32N 52°09' E 003°26'1514.3
2017-Mar-19 05:30N 51°55' E 003°22'9 9.6
2017-Mar-19 04:32N 51°47' E 003°14'1010.0
2017-Mar-19 03:33N 51°38' E 003°22'1110.6
2017-Mar-19 02:34N 51°29' E 003°30'7 6.8
2017-Mar-19 01:34N 51°27' E 003°41'1110.6
2017-Mar-19 00:33N 51°23' E 003°57'10 9.7
2017-Mar-18 23:33N 51°24' E 004°12'7 7.3
2017-Mar-18 22:33N 51°17' E 004°15'1 1.0
2017-Mar-18 21:33N 51°16' E 004°14'0 0.0
2017-Mar-18 20:28N 51°16' E 004°14'0 0.0
2017-Mar-18 19:31N 51°16' E 004°14'0 0.0
2017-Mar-18 18:31N 51°16' E 004°14'0 0.0
2017-Mar-18 17:28N 51°16' E 004°14'0 0.0
2017-Mar-18 16:31N 51°16' E 004°14'0 0.0
2017-Mar-18 15:31N 51°16' E 004°14'0 0.0
2017-Mar-18 14:31N 51°16' E 004°14'0 0.0
2017-Mar-18 13:31N 51°16' E 004°14'0 0.0
2017-Mar-18 12:31N 51°16' E 004°14'0 0.0
2017-Mar-18 11:31N 51°16' E 004°14'0 0.0
2017-Mar-18 10:31N 51°16' E 004°14'0 0.0
2017-Mar-18 09:31N 51°16' E 004°14'0 0.0
2017-Mar-18 08:31N 51°16' E 004°14'0 0.0
2017-Mar-18 07:31N 51°16' E 004°14'0 0.0
2017-Mar-18 06:31N 51°16' E 004°14'0 0.0
2017-Mar-18 05:31N 51°16' E 004°14'0 0.0
2017-Mar-18 04:31N 51°16' E 004°14'0 0.0
2017-Mar-18 03:31N 51°16' E 004°14'0 0.0
2017-Mar-18 02:31N 51°16' E 004°14'0 0.0
2017-Mar-18 01:31N 51°16' E 004°14'0 0.0
2017-Mar-18 00:31N 51°16' E 004°14'0 0.0
2017-Mar-17 23:31N 51°16' E 004°14'0 0.0
2017-Mar-17 22:31N 51°16' E 004°14'0 0.0
2017-Mar-17 21:31N 51°16' E 004°14'0 0.0
2017-Mar-17 20:31N 51°16' E 004°14'0 0.0
2017-Mar-17 19:31N 51°16' E 004°14'0 0.0
2017-Mar-17 18:28N 51°16' E 004°14'0 0.0
2017-Mar-17 17:31N 51°16' E 004°14'0 0.0
2017-Mar-17 16:31N 51°16' E 004°14'0 0.0
2017-Mar-17 15:31N 51°16' E 004°14'0 0.0
2017-Mar-17 14:31N 51°16' E 004°14'0 0.0
2017-Mar-17 13:31N 51°16' E 004°14'0 0.0
2017-Mar-17 12:31N 51°16' E 004°14'0 0.0
2017-Mar-17 11:25N 51°16' E 004°14'0 0.0
2017-Mar-17 10:31N 51°16' E 004°14'1 1.0
2017-Mar-17 09:34N 51°17' E 004°15'0 0.3
2017-Mar-17 08:33N 51°17' E 004°15'6 6.4
2017-Mar-17 07:33N 51°23' E 004°13'9 8.4
2017-Mar-17 06:32N 51°26' E 003°60'9 9.5
2017-Mar-17 05:33N 51°21' E 003°47'9 9.5
2017-Mar-17 04:34N 51°26' E 003°34'10 9.9
2017-Mar-17 03:33N 51°34' E 003°25'1111.1
2017-Mar-17 02:33N 51°43' E 003°15'1615.1
2017-Mar-17 01:32N 51°59' E 003°20'1414.0
2017-Mar-17 00:30N 52°13' E 003°21'1718.0
2017-Mar-16 23:33N 52°27' E 003°38'1717.2
2017-Mar-16 22:33N 52°31' E 004°05'9 7.8
2017-Mar-16 21:28N 52°32' E 004°19'0 0.1
2017-Mar-16 20:28N 52°32' E 004°19'2 2.7
2017-Mar-16 19:34N 52°31' E 004°23'9 8.6
2017-Mar-16 18:33N 52°28' E 004°36'1 0.9
2017-Mar-16 17:34N 52°28' E 004°38'7 7.1
2017-Mar-16 16:34N 52°25' E 004°49'1 0.8
2017-Mar-16 15:32N 52°24' E 004°49'0 0.0
2017-Mar-16 14:32N 52°24' E 004°49'0 0.0
2017-Mar-16 13:32N 52°24' E 004°49'0 0.0
2017-Mar-16 12:32N 52°24' E 004°49'0 0.0
2017-Mar-16 11:32N 52°24' E 004°49'0 0.0
2017-Mar-16 10:32N 52°24' E 004°49'0 0.0
2017-Mar-16 09:32N 52°24' E 004°49'0 0.0
2017-Mar-16 08:29N 52°24' E 004°49'0 0.0
2017-Mar-16 07:32N 52°24' E 004°49'0 0.0
2017-Mar-16 06:32N 52°24' E 004°49'0 0.0
2017-Mar-16 05:32N 52°24' E 004°49'0 0.0
2017-Mar-16 04:32N 52°24' E 004°49'0 0.0
2017-Mar-16 03:32N 52°24' E 004°49'0 0.0
2017-Mar-16 02:32N 52°24' E 004°49'0 0.0
2017-Mar-16 01:32N 52°24' E 004°49'0 0.0
2017-Mar-16 00:32N 52°24' E 004°49'0 0.0
2017-Mar-15 23:32N 52°24' E 004°49'0 0.0
2017-Mar-15 22:32N 52°24' E 004°49'0 0.0
2017-Mar-15 21:32N 52°24' E 004°49'0 0.0
2017-Mar-15 20:32N 52°24' E 004°49'1 0.8
2017-Mar-15 19:33N 52°25' E 004°49'8 7.7
2017-Mar-15 18:33N 52°28' E 004°37'2 1.9
2017-Mar-15 17:33N 52°28' E 004°34'8 8.3
2017-Mar-15 16:33N 52°29' E 004°20'1010.3
2017-Mar-15 15:33N 52°34' E 004°06'1211.6
2017-Mar-15 14:33N 52°45' E 003°57'1211.5
2017-Mar-15 13:33N 52°55' E 003°48'13212.0
2017-Mar-15 02:33N 54°14' E 000°51'1211.5
2017-Mar-15 01:32N 54°21' E 000°34'1111.3
2017-Mar-15 00:33N 54°27' E 000°18'1111.1
2017-Mar-14 23:33N 54°33' E 000°02'1111.1
2017-Mar-14 22:33N 54°39' W 000°14'1111.2
2017-Mar-14 21:33N 54°45' W 000°31'2311.6
2017-Mar-14 19:33N 54°57' W 001°05'1111.1
2017-Mar-14 18:33N 55°01' W 001°23'3 3.3
2017-Mar-14 17:32N 54°59' W 001°28'0 0.0
2017-Mar-14 16:32N 54°59' W 001°28'0 0.0
2017-Mar-14 15:32N 54°59' W 001°28'0 0.0
2017-Mar-14 14:29N 54°59' W 001°28'0 0.0
2017-Mar-14 13:32N 54°59' W 001°28'0 0.0
2017-Mar-14 12:32N 54°59' W 001°28'0 0.0
2017-Mar-14 11:32N 54°59' W 001°28'0 0.0
2017-Mar-14 10:32N 54°59' W 001°28'0 0.0
2017-Mar-14 09:32N 54°59' W 001°28'0 0.0
2017-Mar-14 08:32N 54°59' W 001°28'0 0.0
2017-Mar-14 07:32N 54°59' W 001°28'0 0.0
2017-Mar-14 06:32N 54°59' W 001°28'0 0.0
2017-Mar-14 05:32N 54°59' W 001°28'0 0.0
2017-Mar-14 04:32N 54°59' W 001°28'0 0.0
2017-Mar-14 03:32N 54°59' W 001°28'0 0.0
2017-Mar-14 02:32N 54°59' W 001°28'0 0.0
2017-Mar-14 01:32N 54°59' W 001°28'0 0.0
2017-Mar-14 00:32N 54°59' W 001°28'0 0.0
2017-Mar-13 23:32N 54°59' W 001°28'0 0.0
2017-Mar-13 22:32N 54°59' W 001°28'0 0.0
2017-Mar-13 21:32N 54°59' W 001°28'0 0.3
2017-Mar-13 20:33N 54°59' W 001°27'0 0.0
2017-Mar-13 19:33N 54°59' W 001°27'0 0.0
2017-Mar-13 18:30N 54°59' W 001°27'0 0.0
2017-Mar-13 17:24N 54°59' W 001°27'0 0.0
2017-Mar-13 16:30N 54°59' W 001°27'0 0.0
2017-Mar-13 15:33N 54°59' W 001°27'0 0.0
2017-Mar-13 14:33N 54°59' W 001°27'0 0.0
2017-Mar-13 13:33N 54°59' W 001°27'0 0.0
2017-Mar-13 12:33N 54°59' W 001°27'0 0.0
2017-Mar-13 11:30N 54°59' W 001°27'0 0.0
2017-Mar-13 10:30N 54°59' W 001°27'  

Dump ship's entire track history